Time;durP1;ratioP1;P1;durP2;ratioP2;P2;SDS_P1;SDS_P2;PMS_P1;PMS_P2;Temp;Humidity;BMP_temperature;BMP_pressure;BME280_temperature;BME280_humidity;BME280_pressure;Samples;Min_cycle;Max_cycle;Signal;HPM_P1;HPM_P2
2024/04/19 00:01:46;;;;;;;11.90;6.93;;;6.10;99.90;;;;;;7380068;19;20022;-62
2024/04/19 00:04:12;;;;;;;11.43;7.45;;;6.10;99.90;;;;;;7381384;19;20492;-61
2024/04/19 00:06:38;;;;;;;12.63;8.30;;;6.10;99.90;;;;;;7380429;19;20363;-62
2024/04/19 00:09:06;;;;;;;11.70;7.60;;;6.10;99.90;;;;;;7380780;19;20021;-62
2024/04/19 00:11:32;;;;;;;12.40;8.95;;;6.10;99.90;;;;;;7381854;19;20027;-62
2024/04/19 00:13:58;;;;;;;15.50;9.20;;;6.10;99.90;;;;;;7378347;19;20015;-61
2024/04/19 00:16:25;;;;;;;13.20;8.85;;;6.10;99.90;;;;;;7380260;19;20024;-62
2024/04/19 00:18:54;;;;;;;13.57;8.80;;;6.10;99.90;;;;;;7378649;19;20019;-61
2024/04/19 00:21:21;;;;;;;14.38;8.75;;;6.10;99.90;;;;;;7376340;19;20023;-61
2024/04/19 00:23:48;;;;;;;14.27;9.32;;;6.10;99.90;;;;;;7377796;19;20015;-61
2024/04/19 00:26:14;;;;;;;14.13;8.00;;;6.00;99.90;;;;;;7382673;19;20022;-63
2024/04/19 00:28:40;;;;;;;12.82;8.40;;;6.00;99.90;;;;;;7379313;19;20018;-61
2024/04/19 00:31:07;;;;;;;13.05;7.53;;;6.00;99.90;;;;;;7379644;19;20383;-62
2024/04/19 00:33:35;;;;;;;17.13;8.45;;;6.00;99.90;;;;;;7376441;19;20022;-63
2024/04/19 00:36:01;;;;;;;14.48;8.82;;;6.00;99.90;;;;;;7382230;19;20033;-61
2024/04/19 00:38:27;;;;;;;17.33;8.13;;;6.00;99.90;;;;;;7376262;19;20544;-61
2024/04/19 00:41:13;;;;;;;14.27;8.57;;;6.00;99.90;;;;;;7377629;19;20579;-61
2024/04/19 00:43:40;;;;;;;11.40;8.95;;;6.00;99.90;;;;;;7381354;19;20047;-61
2024/04/19 00:46:07;;;;;;;14.05;9.70;;;6.00;99.90;;;;;;7378210;19;21123;-61
2024/04/19 00:48:33;;;;;;;14.30;9.50;;;6.00;99.90;;;;;;7379363;19;20022;-61
2024/04/19 00:51:01;;;;;;;17.25;10.35;;;6.00;99.90;;;;;;7378241;19;20859;-62
2024/04/19 00:53:32;;;;;;;16.38;9.77;;;6.00;99.90;;;;;;7376554;19;20025;-61
2024/04/19 00:56:17;;;;;;;11.60;9.80;;;6.10;99.90;;;;;;7379575;19;20118;-61
2024/04/19 00:58:44;;;;;;;16.55;11.35;;;6.10;99.90;;;;;;7377860;19;20014;-61
2024/04/19 01:01:12;;;;;;;15.27;10.68;;;6.10;99.90;;;;;;7380473;19;20054;-61
2024/04/19 01:03:38;;;;;;;14.98;10.77;;;6.10;99.90;;;;;;7380139;19;20102;-63
2024/04/19 01:06:25;;;;;;;17.90;10.90;;;6.10;99.90;;;;;;7377544;19;20464;-63
2024/04/19 01:08:51;;;;;;;14.93;10.73;;;6.10;99.90;;;;;;7379040;19;20371;-62
2024/04/19 01:11:30;;;;;;;16.55;10.63;;;6.10;99.90;;;;;;7377448;19;20022;-63
2024/04/19 01:13:57;;;;;;;17.52;11.30;;;6.10;99.90;;;;;;7379066;19;20018;-63
2024/04/19 01:16:26;;;;;;;17.08;11.18;;;6.20;99.90;;;;;;7376873;19;20042;-62
2024/04/19 01:18:52;;;;;;;17.23;11.55;;;6.20;99.90;;;;;;7378905;19;20023;-62
2024/04/19 01:21:20;;;;;;;17.73;12.50;;;6.20;99.90;;;;;;7379096;19;20032;-63
2024/04/19 01:23:53;;;;;;;21.23;12.60;;;6.20;99.90;;;;;;7376875;19;20018;-62
2024/04/19 01:26:20;;;;;;;18.58;12.18;;;6.20;99.90;;;;;;7377191;19;20756;-61
2024/04/19 01:28:46;;;;;;;21.00;12.15;;;6.20;99.90;;;;;;7378122;19;20025;-61
2024/04/19 01:31:12;;;;;;;18.65;12.63;;;6.20;99.90;;;;;;7374461;19;20022;-61
2024/04/19 01:33:41;;;;;;;18.45;12.23;;;6.20;99.90;;;;;;7377095;19;20023;-62
2024/04/19 01:36:07;;;;;;;19.52;13.07;;;6.20;99.90;;;;;;7378289;19;20383;-62
2024/04/19 01:38:48;;;;;;;19.73;13.60;;;6.20;99.90;;;;;;7379348;19;20533;-61
2024/04/19 01:41:14;;;;;;;19.90;13.20;;;6.20;99.90;;;;;;7374207;19;20022;-61
2024/04/19 01:43:42;;;;;;;18.50;13.32;;;6.30;99.90;;;;;;7376713;19;20017;-61
2024/04/19 01:46:11;;;;;;;17.52;12.55;;;6.30;99.90;;;;;;7374314;19;20026;-61
2024/04/19 01:48:37;;;;;;;18.73;13.65;;;6.30;99.90;;;;;;7376437;19;20018;-61
2024/04/19 01:51:04;;;;;;;18.83;13.90;;;6.30;99.90;;;;;;7373863;19;20029;-62
2024/04/19 01:53:30;;;;;;;18.60;14.20;;;6.40;99.90;;;;;;7377796;19;20084;-62
2024/04/19 01:55:56;;;;;;;18.90;14.80;;;6.40;99.90;;;;;;7375868;19;20078;-62
2024/04/19 01:58:41;;;;;;;20.20;14.07;;;6.40;99.90;;;;;;7373791;19;20098;-63
2024/04/19 02:01:07;;;;;;;19.95;15.77;;;6.40;99.90;;;;;;7375805;19;20029;-61
2024/04/19 02:03:33;;;;;;;20.08;15.18;;;6.40;99.90;;;;;;7372229;19;21536;-61
2024/04/19 02:06:11;;;;;;;18.92;15.00;;;6.40;99.90;;;;;;7378080;19;20934;-62
2024/04/19 02:08:37;;;;;;;19.75;15.60;;;6.40;99.90;;;;;;7377647;19;20028;-62
2024/04/19 02:11:04;;;;;;;19.63;15.93;;;6.40;99.90;;;;;;7374026;19;20022;-62
2024/04/19 02:13:31;;;;;;;18.35;15.50;;;6.50;99.90;;;;;;7377688;19;20046;-62
2024/04/19 02:15:58;;;;;;;20.30;16.58;;;6.40;99.90;;;;;;7375143;19;20683;-62
2024/04/19 02:18:27;;;;;;;23.23;16.92;;;6.50;99.90;;;;;;7372681;19;20014;-62
2024/04/19 02:20:53;;;;;;;21.92;16.15;;;6.50;99.90;;;;;;7375982;19;20018;-62
2024/04/19 02:23:37;;;;;;;23.40;17.30;;;6.60;99.90;;;;;;7375045;19;20050;-62
2024/04/19 02:26:05;;;;;;;22.05;16.85;;;6.60;99.90;;;;;;7377295;19;20018;-61
2024/04/19 02:31:22;;;;;;;19.77;15.15;;;6.70;99.90;;;;;;7375175;19;20818;-61
2024/04/19 02:33:49;;;;;;;17.60;15.10;;;6.60;99.90;;;;;;7376494;19;20538;-61
2024/04/19 02:36:15;;;;;;;20.42;14.50;;;6.70;99.90;;;;;;7375076;19;20026;-62
2024/04/19 02:38:45;;;;;;;19.65;14.00;;;6.70;99.90;;;;;;7371041;19;20014;-62
2024/04/19 02:41:11;;;;;;;17.88;12.75;;;6.70;99.90;;;;;;7374131;19;20531;-62
2024/04/19 02:43:48;;;;;;;16.48;12.15;;;6.80;99.90;;;;;;7373314;19;20789;-62
2024/04/19 02:46:16;;;;;;;13.52;10.40;;;6.80;99.90;;;;;;7377712;19;20015;-62
2024/04/19 02:48:42;;;;;;;13.85;10.88;;;6.80;99.90;;;;;;7376338;19;20356;-62
2024/04/19 02:51:08;;;;;;;11.82;9.48;;;6.80;99.90;;;;;;7373249;19;20006;-62
2024/04/19 02:53:35;;;;;;;10.40;8.55;;;6.80;99.90;;;;;;7375344;19;20471;-61
2024/04/19 02:56:05;;;;;;;9.50;8.38;;;6.80;99.90;;;;;;7376814;19;20493;-62
2024/04/19 02:58:31;;;;;;;10.55;8.23;;;6.90;99.90;;;;;;7369322;19;20472;-62
2024/04/19 03:00:57;;;;;;;9.98;7.95;;;6.80;99.90;;;;;;7374199;19;20478;-61
2024/04/19 03:03:24;;;;;;;9.15;8.25;;;6.90;99.90;;;;;;7375227;19;20022;-62
2024/04/19 03:05:54;;;;;;;9.95;7.32;;;7.00;99.90;;;;;;7375712;19;20015;-62
2024/04/19 03:08:21;;;;;;;8.68;7.38;;;7.00;99.90;;;;;;7374423;19;20058;-61
2024/04/19 03:11:10;;;;;;;9.63;7.25;;;7.00;99.90;;;;;;7372007;19;20014;-61
2024/04/19 03:13:36;;;;;;;7.72;6.93;;;7.00;99.90;;;;;;7378629;19;20022;-62
2024/04/19 03:16:22;;;;;;;9.70;7.68;;;7.00;99.90;;;;;;7379375;19;20639;-62
2024/04/19 03:18:49;;;;;;;8.70;7.18;;;7.00;99.90;;;;;;7381327;19;20394;-61
2024/04/19 03:21:37;;;;;;;9.98;7.25;;;7.00;99.90;;;;;;7379250;19;20026;-61
2024/04/19 03:24:08;;;;;;;10.35;7.20;;;7.10;99.90;;;;;;7379636;19;20022;-61
2024/04/19 03:26:34;;;;;;;10.23;8.50;;;7.00;99.90;;;;;;7378672;19;20138;-60
2024/04/19 03:29:01;;;;;;;9.98;7.60;;;7.00;99.90;;;;;;7382171;19;20090;-61
2024/04/19 03:31:27;;;;;;;10.48;8.18;;;7.10;99.90;;;;;;7378865;19;20443;-61
2024/04/19 03:33:54;;;;;;;10.55;7.25;;;7.10;99.90;;;;;;7382997;19;20045;-61
2024/04/19 03:36:20;;;;;;;8.48;7.45;;;7.10;99.90;;;;;;7380464;19;20679;-61
2024/04/19 03:38:47;;;;;;;8.82;7.18;;;7.20;99.90;;;;;;7379485;19;20400;-61
2024/04/19 03:41:13;;;;;;;9.68;7.18;;;7.20;99.90;;;;;;7381217;19;20078;-61
2024/04/19 03:46:47;;;;;;;8.30;6.43;;;7.20;99.90;;;;;;7380110;19;20022;-62
2024/04/19 03:49:33;;;;;;;8.45;7.47;;;7.30;99.90;;;;;;7380323;19;20012;-61
2024/04/19 03:51:59;;;;;;;8.85;7.43;;;7.30;99.90;;;;;;7378845;19;20019;-61
2024/04/19 03:54:25;;;;;;;9.85;7.90;;;7.30;99.90;;;;;;7382064;19;20014;-61
2024/04/19 03:56:51;;;;;;;10.88;7.97;;;7.30;99.90;;;;;;7375435;19;20357;-61
2024/04/19 03:59:19;;;;;;;7.93;7.03;;;7.30;99.90;;;;;;7380879;19;20600;-61
2024/04/19 04:01:48;;;;;;;10.45;7.97;;;7.30;99.90;;;;;;7380972;19;20018;-61
2024/04/19 04:04:15;;;;;;;8.05;6.63;;;7.40;99.90;;;;;;7382453;19;20015;-61
2024/04/19 04:06:42;;;;;;;7.60;6.13;;;7.40;99.90;;;;;;7380313;19;20022;-61
2024/04/19 04:09:08;;;;;;;7.88;6.20;;;7.50;99.90;;;;;;7380787;19;20022;-60
2024/04/19 04:11:34;;;;;;;10.13;6.35;;;7.40;99.90;;;;;;7379387;19;20428;-62
2024/04/19 04:14:00;;;;;;;7.05;5.78;;;7.60;99.90;;;;;;7381252;19;20764;-61
2024/04/19 04:16:26;;;;;;;7.45;5.93;;;7.50;99.90;;;;;;7378567;19;20550;-61
2024/04/19 04:18:52;;;;;;;10.32;7.13;;;7.60;99.90;;;;;;7380384;19;20022;-61
2024/04/19 04:21:19;;;;;;;9.80;6.55;;;7.70;99.90;;;;;;7381409;19;20015;-61
2024/04/19 04:23:45;;;;;;;9.65;7.28;;;7.70;99.90;;;;;;7379161;19;20528;-61
2024/04/19 04:26:12;;;;;;;12.98;7.38;;;7.80;99.90;;;;;;7379450;19;20509;-61
2024/04/19 04:28:38;;;;;;;11.45;6.55;;;7.80;99.90;;;;;;7379436;19;20157;-62
2024/04/19 04:31:08;;;;;;;9.52;6.15;;;7.90;99.90;;;;;;7379411;19;20018;-61
2024/04/19 04:33:34;;;;;;;13.05;6.85;;;7.90;99.90;;;;;;7378969;19;20062;-62
2024/04/19 04:36:00;;;;;;;11.43;6.97;;;7.90;99.90;;;;;;7379748;19;20022;-61
2024/04/19 04:38:26;;;;;;;12.45;6.63;;;7.90;99.90;;;;;;7378743;19;20033;-61
2024/04/19 04:40:52;;;;;;;11.75;6.05;;;8.10;99.90;;;;;;7378458;19;20560;-61
2024/04/19 04:43:19;;;;;;;13.52;5.80;;;8.00;99.90;;;;;;7380337;19;20022;-61
2024/04/19 04:45:48;;;;;;;10.48;5.97;;;8.00;99.90;;;;;;7377620;19;20026;-61
2024/04/19 04:48:17;;;;;;;13.10;6.15;;;8.20;99.90;;;;;;7382415;19;20022;-61
2024/04/19 04:50:44;;;;;;;11.32;5.70;;;8.20;99.90;;;;;;7378717;19;20018;-61
2024/04/19 04:53:10;;;;;;;12.60;6.40;;;8.10;99.90;;;;;;7378427;19;20840;-62
2024/04/19 04:55:36;;;;;;;12.48;5.80;;;8.10;99.90;;;;;;7376539;19;20086;-61
2024/04/19 04:58:04;;;;;;;15.63;6.15;;;8.20;99.90;;;;;;7377841;19;20542;-62
2024/04/19 05:00:30;;;;;;;13.70;5.03;;;8.20;99.90;;;;;;7379779;19;20014;-61
2024/04/19 05:03:00;;;;;;;15.02;5.47;;;8.20;99.90;;;;;;7375938;19;20532;-62
2024/04/19 05:05:26;;;;;;;13.27;5.30;;;8.30;99.90;;;;;;7377904;19;20709;-61
2024/04/19 05:07:52;;;;;;;13.18;5.20;;;8.20;99.90;;;;;;7378970;19;20019;-61
2024/04/19 05:10:21;;;;;;;16.83;5.45;;;8.30;99.90;;;;;;7378956;19;20025;-61
2024/04/19 05:12:47;;;;;;;18.83;5.68;;;8.20;99.90;;;;;;7375666;19;20771;-61
2024/04/19 05:15:13;;;;;;;14.48;5.80;;;8.30;99.90;;;;;;7378290;19;20075;-62
2024/04/19 05:17:48;;;;;;;15.70;5.60;;;8.30;99.90;;;;;;7379067;19;20653;-61
2024/04/19 05:20:14;;;;;;;14.25;4.93;;;8.30;99.90;;;;;;7380400;19;20056;-61
2024/04/19 05:22:40;;;;;;;19.17;6.05;;;8.20;99.90;;;;;;7378187;19;20530;-61
2024/04/19 05:25:08;;;;;;;16.27;6.07;;;8.30;99.90;;;;;;7378296;19;20018;-61
2024/04/19 05:27:34;;;;;;;18.95;5.57;;;8.20;99.90;;;;;;7376830;19;20042;-61
2024/04/19 05:30:01;;;;;;;19.10;7.20;;;8.30;99.90;;;;;;7379392;19;20018;-61
2024/04/19 05:32:28;;;;;;;13.80;6.15;;;8.20;99.90;;;;;;7376709;19;20106;-62
2024/04/19 05:34:54;;;;;;;17.85;5.93;;;8.30;99.90;;;;;;7377951;19;20018;-62
2024/04/19 05:37:20;;;;;;;22.58;6.28;;;8.30;99.90;;;;;;7374067;19;20721;-62
2024/04/19 05:39:46;;;;;;;22.02;5.88;;;8.30;99.90;;;;;;7373572;19;20029;-61
2024/04/19 05:42:13;;;;;;;15.55;5.97;;;8.40;99.90;;;;;;7379336;19;20883;-62
2024/04/19 05:44:42;;;;;;;24.63;6.22;;;8.50;99.90;;;;;;7377951;19;20118;-61
2024/04/19 05:47:09;;;;;;;24.33;6.57;;;8.50;99.90;;;;;;7376230;19;20018;-61
2024/04/19 05:49:36;;;;;;;19.20;6.38;;;8.40;99.90;;;;;;7375099;19;20018;-61
2024/04/19 05:52:02;;;;;;;21.20;5.90;;;8.50;99.90;;;;;;7379066;19;20070;-60
2024/04/19 05:54:28;;;;;;;27.58;5.68;;;8.50;99.90;;;;;;7378224;19;20355;-62
2024/04/19 05:56:54;;;;;;;15.27;4.65;;;8.60;99.90;;;;;;7377219;19;20022;-62
2024/04/19 05:59:21;;;;;;;27.77;5.90;;;8.60;99.90;;;;;;7375563;19;20014;-61
2024/04/19 06:01:48;;;;;;;21.63;5.32;;;8.60;99.90;;;;;;7376975;19;20030;-61
2024/04/19 06:04:14;;;;;;;21.08;4.97;;;8.50;99.90;;;;;;7377239;19;20504;-61
2024/04/19 06:06:40;;;;;;;24.95;5.45;;;8.50;99.90;;;;;;7373249;19;20023;-61
2024/04/19 06:09:06;;;;;;;20.20;4.68;;;8.60;99.90;;;;;;7380002;19;20033;-61
2024/04/19 06:11:33;;;;;;;29.73;5.80;;;8.70;99.90;;;;;;7377934;19;20018;-62
2024/04/19 06:13:59;;;;;;;19.40;5.13;;;8.60;99.90;;;;;;7374918;19;20612;-62
2024/04/19 06:16:25;;;;;;;27.25;4.60;;;8.70;99.90;;;;;;7375923;19;20522;-62
2024/04/19 06:18:52;;;;;;;17.38;3.88;;;8.70;99.90;;;;;;7374719;19;20010;-62
2024/04/19 06:21:18;;;;;;;18.83;4.80;;;8.70;99.90;;;;;;7375750;19;20424;-62
2024/04/19 06:23:45;;;;;;;17.02;4.03;;;8.80;99.90;;;;;;7376318;19;20387;-62
2024/04/19 06:26:11;;;;;;;22.27;4.68;;;8.80;99.90;;;;;;7375255;19;20022;-63
2024/04/19 06:28:40;;;;;;;23.60;4.45;;;8.70;99.90;;;;;;7376448;19;20022;-62
2024/04/19 06:31:11;;;;;;;19.90;4.88;;;8.80;99.90;;;;;;7375878;19;21250;-62
2024/04/19 06:33:39;;;;;;;21.05;4.07;;;8.70;99.90;;;;;;7378876;19;20018;-62
2024/04/19 06:36:06;;;;;;;20.27;4.45;;;8.80;99.90;;;;;;7376936;19;20021;-62
2024/04/19 06:38:33;;;;;;;19.60;4.13;;;8.70;99.90;;;;;;7375376;19;20023;-62
2024/04/19 06:40:59;;;;;;;18.35;3.85;;;8.80;99.90;;;;;;7375588;19;20225;-62
2024/04/19 06:43:26;;;;;;;20.38;3.63;;;8.90;99.90;;;;;;7377053;19;20497;-61
2024/04/19 06:45:56;;;;;;;14.15;3.20;;;8.90;99.90;;;;;;7376323;19;20135;-62
2024/04/19 06:48:23;;;;;;;24.25;4.38;;;8.90;99.90;;;;;;7374095;19;20018;-61
2024/04/19 06:50:49;;;;;;;17.63;4.22;;;8.80;99.90;;;;;;7375209;19;20040;-61
2024/04/19 06:53:15;;;;;;;22.65;3.45;;;8.80;99.90;;;;;;7376106;19;20018;-62
2024/04/19 06:55:41;;;;;;;16.67;3.38;;;8.90;99.90;;;;;;7372943;19;20959;-61
2024/04/19 06:58:08;;;;;;;15.65;3.13;;;8.80;99.90;;;;;;7370928;19;20371;-61
2024/04/19 07:00:38;;;;;;;16.95;3.50;;;8.90;99.90;;;;;;7375240;19;20489;-63
2024/04/19 07:03:08;;;;;;;18.23;3.25;;;9.00;99.90;;;;;;7375949;19;20018;-62
2024/04/19 07:05:34;;;;;;;16.27;3.53;;;9.10;99.90;;;;;;7371644;19;20021;-61
2024/04/19 07:08:00;;;;;;;19.85;3.13;;;9.00;99.90;;;;;;7372430;19;20362;-61
2024/04/19 07:10:27;;;;;;;16.77;3.20;;;9.00;99.90;;;;;;7374930;19;20505;-61
2024/04/19 07:12:53;;;;;;;13.43;3.00;;;9.10;99.90;;;;;;7373821;19;20025;-61
2024/04/19 07:15:19;;;;;;;16.77;2.90;;;9.00;99.90;;;;;;7371793;19;20010;-61
2024/04/19 07:17:50;;;;;;;18.75;3.25;;;9.00;99.90;;;;;;7372154;19;20471;-61
2024/04/19 07:20:16;;;;;;;17.50;3.15;;;9.00;99.90;;;;;;7376139;19;20017;-62
2024/04/19 07:22:43;;;;;;;12.20;3.28;;;8.90;99.90;;;;;;7374764;19;20019;-61
2024/04/19 07:25:09;;;;;;;16.17;3.13;;;8.90;99.90;;;;;;7373704;19;20037;-61
2024/04/19 07:27:35;;;;;;;13.50;2.78;;;8.90;99.90;;;;;;7375133;19;20010;-61
2024/04/19 07:30:02;;;;;;;19.60;3.60;;;9.00;99.90;;;;;;7374875;19;20011;-61
2024/04/19 07:32:29;;;;;;;14.10;3.65;;;9.00;99.90;;;;;;7372954;19;20401;-61
2024/04/19 07:34:56;;;;;;;13.85;3.15;;;8.90;99.90;;;;;;7372936;19;20060;-61
2024/04/19 07:37:22;;;;;;;12.50;2.90;;;9.00;99.90;;;;;;7372619;19;20863;-61
2024/04/19 07:39:48;;;;;;;11.35;2.30;;;9.00;99.90;;;;;;7373092;19;20111;-61
2024/04/19 07:42:15;;;;;;;14.55;2.67;;;9.00;99.90;;;;;;7374802;19;20022;-62
2024/04/19 07:44:41;;;;;;;10.63;1.77;;;9.10;99.90;;;;;;7374341;19;20040;-60
2024/04/19 07:47:07;;;;;;;10.30;2.50;;;9.10;99.90;;;;;;7375369;19;20479;-65
2024/04/19 07:49:34;;;;;;;15.35;2.60;;;9.20;99.90;;;;;;7372147;19;20074;-62
2024/04/19 07:52:00;;;;;;;10.75;1.75;;;9.20;99.90;;;;;;7373330;19;20014;-63
2024/04/19 07:54:27;;;;;;;12.13;2.88;;;9.30;99.90;;;;;;7374513;19;20022;-61
2024/04/19 07:56:53;;;;;;;13.05;2.47;;;9.20;99.90;;;;;;7373307;19;20018;-62
2024/04/19 07:59:19;;;;;;;11.77;2.00;;;9.30;99.90;;;;;;7371226;19;20055;-63
2024/04/19 08:01:45;;;;;;;9.75;1.98;;;9.20;99.90;;;;;;7380289;19;20019;-61
2024/04/19 08:04:11;;;;;;;12.88;2.05;;;9.30;99.90;;;;;;7383067;19;20050;-62
2024/04/19 08:06:39;;;;;;;13.77;2.00;;;9.20;99.90;;;;;;7378664;19;20075;-63
2024/04/19 08:09:05;;;;;;;17.13;2.65;;;9.20;99.90;;;;;;7382162;19;20772;-61
2024/04/19 08:11:32;;;;;;;10.50;1.92;;;9.10;99.90;;;;;;7375257;19;20590;-63
2024/04/19 08:13:58;;;;;;;13.13;1.92;;;9.10;99.90;;;;;;7382037;19;20014;-61
2024/04/19 08:16:25;;;;;;;13.73;1.88;;;9.10;99.90;;;;;;7381089;19;20597;-61
2024/04/19 08:18:52;;;;;;;12.18;2.42;;;9.20;99.90;;;;;;7376700;19;20019;-61
2024/04/19 08:21:21;;;;;;;10.55;1.73;;;9.30;99.90;;;;;;7381780;19;20094;-61
2024/04/19 08:23:47;;;;;;;13.52;2.30;;;9.40;99.90;;;;;;7381306;19;20039;-60
2024/04/19 08:26:13;;;;;;;9.93;2.03;;;9.50;99.90;;;;;;7379597;19;20018;-63
2024/04/19 08:28:40;;;;;;;11.13;2.22;;;9.60;99.90;;;;;;7378911;19;20707;-63
2024/04/19 08:31:06;;;;;;;10.82;2.30;;;10.10;99.90;;;;;;7381321;19;20492;-62
2024/04/19 08:33:33;;;;;;;9.55;2.50;;;10.40;99.90;;;;;;7379887;19;20022;-63
2024/04/19 08:36:00;;;;;;;10.80;2.05;;;10.40;99.90;;;;;;7378839;19;20078;-63
2024/04/19 08:38:26;;;;;;;11.52;2.72;;;10.60;99.90;;;;;;7378440;19;20018;-62
2024/04/19 08:41:01;;;;;;;10.05;1.67;;;10.20;99.90;;;;;;7377986;19;20024;-64
2024/04/19 08:43:31;;;;;;;10.50;1.90;;;10.10;99.90;;;;;;7381347;19;20109;-61
2024/04/19 08:45:58;;;;;;;9.40;2.45;;;10.20;99.90;;;;;;7380709;19;20126;-61
2024/04/19 08:48:27;;;;;;;11.32;1.70;;;10.00;99.90;;;;;;7378606;19;20018;-61
2024/04/19 08:50:58;;;;;;;12.13;2.45;;;10.10;99.90;;;;;;7380029;19;20025;-64
2024/04/19 08:53:26;;;;;;;8.45;1.58;;;10.10;99.90;;;;;;7379257;19;20164;-63
2024/04/19 08:55:54;;;;;;;8.55;1.85;;;10.10;99.90;;;;;;7380128;19;20022;-63
2024/04/19 08:58:22;;;;;;;40.13;6.35;;;10.00;99.90;;;;;;7374726;19;20394;-63
2024/04/19 09:00:48;;;;;;;13.73;3.30;;;9.80;99.90;;;;;;7379036;19;20025;-63
2024/04/19 09:03:14;;;;;;;10.93;1.90;;;10.00;99.90;;;;;;7379784;19;20021;-63
2024/04/19 09:05:40;;;;;;;9.27;1.67;;;9.80;99.90;;;;;;7375732;19;20026;-60
2024/04/19 09:08:07;;;;;;;10.75;2.58;;;9.80;99.90;;;;;;7377849;19;20010;-61
2024/04/19 09:10:34;;;;;;;24.13;3.67;;;9.80;99.90;;;;;;7378740;19;20371;-61
2024/04/19 09:13:01;;;;;;;10.00;1.85;;;9.90;99.90;;;;;;7377846;19;20607;-61
2024/04/19 09:15:27;;;;;;;11.15;2.28;;;10.40;99.90;;;;;;7376116;19;20026;-61
2024/04/19 09:17:54;;;;;;;8.35;1.98;;;11.30;99.90;;;;;;7378049;19;20086;-61
2024/04/19 09:20:21;;;;;;;18.60;2.78;;;11.70;99.90;;;;;;7377903;19;20018;-64
2024/04/19 09:22:47;;;;;;;10.40;1.95;;;11.90;99.90;;;;;;7379357;19;20887;-61
2024/04/19 09:25:15;;;;;;;26.15;4.78;;;11.70;59.40;;;;;;7378918;19;20022;-64
2024/04/19 09:27:42;;;;;;;6.35;1.60;;;11.80;66.80;;;;;;7375145;19;20488;-64
2024/04/19 09:30:10;;;;;;;9.80;1.98;;;11.80;26.20;;;;;;7376760;19;20053;-64
2024/04/19 09:32:36;;;;;;;5.97;2.30;;;12.30;99.90;;;;;;7379186;19;20029;-64
2024/04/19 09:35:03;;;;;;;7.20;1.88;;;12.10;99.90;;;;;;7377944;19;20637;-61
2024/04/19 09:37:31;;;;;;;9.27;1.90;;;11.90;21.20;;;;;;7373751;19;20029;-64
2024/04/19 09:39:57;;;;;;;21.98;3.85;;;11.70;1.00;;;;;;7377407;19;20018;-61
2024/04/19 09:42:24;;;;;;;9.25;1.80;;;11.60;99.90;;;;;;7376202;19;20019;-62
2024/04/19 09:44:52;;;;;;;8.43;1.60;;;11.10;99.90;;;;;;7378330;19;20044;-64
2024/04/19 09:47:18;;;;;;;11.55;1.67;;;10.70;99.90;;;;;;7377473;19;20014;-64
2024/04/19 09:49:46;;;;;;;60.05;9.27;;;10.30;99.90;;;;;;7378032;19;20023;-61
2024/04/19 09:52:19;;;;;;;5.97;1.67;;;10.20;99.90;;;;;;7374831;19;20019;-61
2024/04/19 09:54:49;;;;;;;8.48;2.00;;;10.00;99.90;;;;;;7377204;19;20462;-61
2024/04/19 09:57:21;;;;;;;6.82;1.50;;;9.90;99.90;;;;;;7372529;19;20581;-60
2024/04/19 09:59:48;;;;;;;;;;;9.90;99.90;;;;;;7378789;19;20035;-61
2024/04/19 10:02:16;;;;;;;3.92;0.98;;;9.90;99.90;;;;;;7375175;19;20629;-61
2024/04/19 10:04:43;;;;;;;3.58;1.00;;;9.90;99.90;;;;;;7375503;19;20057;-61
2024/04/19 10:07:11;;;;;;;5.43;1.10;;;9.90;99.90;;;;;;7375812;19;20035;-61
2024/04/19 10:09:39;;;;;;;6.18;1.73;;;10.10;99.90;;;;;;7376464;19;20880;-61
2024/04/19 10:12:06;;;;;;;5.20;1.00;;;10.60;99.90;;;;;;7377441;19;20029;-61
2024/04/19 10:14:34;;;;;;;4.90;1.45;;;10.40;99.90;;;;;;7378845;19;20024;-64
2024/04/19 10:17:01;;;;;;;4.10;0.70;;;10.40;99.90;;;;;;7376908;19;20018;-61
2024/04/19 10:19:30;;;;;;;4.93;0.88;;;10.50;99.90;;;;;;7377356;19;20018;-61
2024/04/19 10:22:00;;;;;;;4.40;0.93;;;10.30;99.90;;;;;;7377660;19;20010;-61
2024/04/19 10:24:29;;;;;;;4.07;1.05;;;10.30;99.90;;;;;;7376518;19;20058;-60
2024/04/19 10:26:55;;;;;;;4.05;0.75;;;10.30;99.90;;;;;;7376135;19;20431;-63
2024/04/19 10:29:28;;;;;;;5.13;1.05;;;10.20;99.90;;;;;;7376911;19;20768;-62
2024/04/19 10:31:57;;;;;;;3.45;0.70;;;10.00;99.90;;;;;;7375948;19;20015;-62
2024/04/19 10:34:24;;;;;;;3.90;0.70;;;9.90;99.90;;;;;;7373470;19;20014;-62
2024/04/19 10:36:54;;;;;;;3.38;1.27;;;10.00;99.90;;;;;;7373130;19;20015;-61
2024/04/19 10:39:21;;;;;;;3.03;0.80;;;10.10;99.90;;;;;;7370493;19;20014;-61
2024/04/19 10:41:54;;;;;;;4.55;1.00;;;9.50;99.90;;;;;;7373057;19;20026;-62
2024/04/19 10:44:21;;;;;;;5.82;1.10;;;9.40;99.90;;;;;;7374759;19;20666;-62
2024/04/19 10:46:49;;;;;;;4.65;1.02;;;9.30;99.90;;;;;;7373461;19;20021;-62
2024/04/19 10:49:20;;;;;;;4.28;0.95;;;9.20;99.90;;;;;;7374689;19;20015;-63
2024/04/19 10:51:51;;;;;;;5.57;1.40;;;9.10;99.90;;;;;;7377218;19;20022;-60
2024/04/19 10:54:18;;;;;;;5.10;1.40;;;8.90;99.90;;;;;;7375171;19;20018;-62
2024/04/19 10:56:46;;;;;;;4.88;1.65;;;8.80;99.90;;;;;;7372040;19;20018;-60
2024/04/19 10:59:13;;;;;;;5.85;2.50;;;8.70;99.90;;;;;;7375146;19;20629;-63
2024/04/19 11:01:43;;;;;;;3.67;1.30;;;8.70;99.90;;;;;;7372580;19;20027;-63
2024/04/19 11:04:12;;;;;;;5.68;2.00;;;8.50;99.90;;;;;;7374043;19;20014;-61
2024/04/19 11:06:40;;;;;;;4.85;1.55;;;8.50;99.90;;;;;;7367349;19;20023;-61
2024/04/19 11:09:07;;;;;;;7.32;1.77;;;8.20;99.90;;;;;;7368726;19;20022;-61
2024/04/19 11:11:37;;;;;;;7.25;1.83;;;8.20;99.90;;;;;;7371331;19;20149;-62
2024/04/19 11:14:10;;;;;;;2.97;1.40;;;8.30;99.90;;;;;;7372895;19;20074;-62
2024/04/19 11:16:36;;;;;;;6.00;1.35;;;8.30;99.90;;;;;;7371214;19;20042;-62
2024/04/19 11:19:03;;;;;;;5.18;1.48;;;8.30;99.90;;;;;;7369026;19;20696;-62
2024/04/19 11:21:30;;;;;;;6.13;1.40;;;8.30;99.90;;;;;;7371340;19;20030;-61
2024/04/19 11:23:56;;;;;;;6.35;1.77;;;8.50;99.90;;;;;;7373726;19;20514;-62
2024/04/19 11:26:22;;;;;;;5.72;1.40;;;8.70;99.90;;;;;;7371947;19;20018;-62
2024/04/19 11:28:48;;;;;;;7.30;1.40;;;9.00;99.90;;;;;;7372879;19;20025;-62
2024/04/19 11:31:15;;;;;;;8.23;1.33;;;9.60;99.90;;;;;;7370996;19;20026;-61
2024/04/19 11:33:41;;;;;;;7.97;1.92;;;10.10;99.90;;;;;;7371439;19;20033;-61
2024/04/19 11:36:09;;;;;;;6.00;1.55;;;9.90;99.90;;;;;;7377930;19;20018;-62
2024/04/19 11:38:36;;;;;;;7.80;3.22;;;10.00;99.90;;;;;;7375309;19;20126;-62
2024/04/19 11:41:03;;;;;;;7.80;1.98;;;10.20;99.90;;;;;;7378261;19;20006;-62
2024/04/19 11:43:30;;;;;;;9.13;2.75;;;10.00;99.90;;;;;;7375491;19;20019;-62
2024/04/19 11:45:57;;;;;;;6.97;1.50;;;10.20;99.90;;;;;;7379457;19;20817;-61
2024/04/19 11:48:27;;;;;;;5.75;1.70;;;10.30;99.90;;;;;;7375708;19;20022;-61
2024/04/19 11:50:55;;;;;;;11.98;2.88;;;10.20;99.90;;;;;;7377322;19;20018;-60
2024/04/19 11:53:21;;;;;;;8.57;2.35;;;10.20;99.90;;;;;;7379557;19;20023;-61
2024/04/19 11:55:50;;;;;;;6.88;2.10;;;10.30;99.90;;;;;;7376022;19;20022;-62
2024/04/19 11:58:17;;;;;;;16.02;3.42;;;10.80;99.90;;;;;;7370642;19;20018;-61
2024/04/19 12:00:43;;;;;;;9.57;2.42;;;11.60;99.90;;;;;;7377074;19;20973;-62
2024/04/19 12:03:10;;;;;;;8.93;2.35;;;12.10;99.90;;;;;;7380131;19;20014;-62
2024/04/19 12:05:39;;;;;;;12.48;2.92;;;11.80;99.90;;;;;;7378059;19;20028;-64
2024/04/19 12:08:06;;;;;;;25.33;5.18;;;11.80;99.90;;;;;;7376051;19;20017;-61
2024/04/19 12:10:33;;;;;;;11.40;2.83;;;11.30;72.60;;;;;;7376615;19;20023;-62
2024/04/19 12:12:59;;;;;;;10.93;2.45;;;11.50;65.00;;;;;;7375355;19;20056;-64
2024/04/19 12:15:25;;;;;;;13.63;3.55;;;12.70;99.90;;;;;;7377772;19;20019;-64
2024/04/19 12:17:53;;;;;;;23.15;5.90;;;13.50;1.00;;;;;;7377259;19;20047;-65
2024/04/19 12:20:19;;;;;;;10.43;3.10;;;13.30;90.40;;;;;;7380208;19;20471;-65
2024/04/19 12:22:46;;;;;;;13.00;4.18;;;12.80;1.00;;;;;;7381045;19;20024;-65
2024/04/19 12:25:15;;;;;;;17.38;3.65;;;13.20;99.80;;;;;;7382408;19;20070;-65
2024/04/19 12:27:41;;;;;;;9.80;3.63;;;12.70;1.00;;;;;;7380452;19;20049;-64
2024/04/19 12:30:08;;;;;;;17.13;4.50;;;12.00;1.00;;;;;;7380985;19;20031;-64
2024/04/19 12:32:34;;;;;;;12.07;4.00;;;11.60;99.90;;;;;;7380510;19;20035;-64
2024/04/19 12:35:00;;;;;;;15.07;4.00;;;11.30;99.90;;;;;;7379821;19;20057;-64
2024/04/19 12:37:26;;;;;;;14.38;4.32;;;11.80;99.90;;;;;;7378338;19;20019;-62
2024/04/19 12:39:53;;;;;;;13.40;4.25;;;12.40;1.00;;;;;;7377554;19;20078;-65
2024/04/19 12:42:20;;;;;;;13.85;3.88;;;12.70;99.90;;;;;;7381028;19;20121;-65
2024/04/19 12:44:50;;;;;;;10.98;3.80;;;13.40;1.00;;;;;;7380331;19;20120;-65
2024/04/19 12:47:17;;;;;;;12.18;3.63;;;13.30;1.00;;;;;;7377198;19;20046;-65
2024/04/19 12:49:44;;;;;;;14.00;3.78;;;13.00;99.90;;;;;;7374890;19;20422;-62
2024/04/19 12:52:10;;;;;;;16.77;4.38;;;13.00;99.90;;;;;;7380204;19;20014;-64
2024/04/19 12:54:36;;;;;;;11.85;3.38;;;12.90;99.90;;;;;;7379677;19;20664;-64